sensor_id;sensor_type;location;lat;lon;timestamp;P1;durP1;ratioP1;P2;durP2;ratioP2
23416;SDS011;11881;42.432;25.632;2024-02-21T00:00:09;29.37;;;18.00;;
23416;SDS011;11881;42.432;25.632;2024-02-21T00:02:36;32.43;;;17.93;;
23416;SDS011;11881;42.432;25.632;2024-02-21T00:05:02;30.93;;;18.27;;
23416;SDS011;11881;42.432;25.632;2024-02-21T00:07:28;34.67;;;18.60;;
23416;SDS011;11881;42.432;25.632;2024-02-21T00:09:53;31.00;;;17.93;;
23416;SDS011;11881;42.432;25.632;2024-02-21T00:12:19;34.20;;;18.30;;
23416;SDS011;11881;42.432;25.632;2024-02-21T00:14:44;31.00;;;18.27;;
23416;SDS011;11881;42.432;25.632;2024-02-21T00:17:10;28.60;;;16.53;;
23416;SDS011;11881;42.432;25.632;2024-02-21T00:19:35;31.23;;;16.73;;
23416;SDS011;11881;42.432;25.632;2024-02-21T00:22:01;31.23;;;17.87;;
23416;SDS011;11881;42.432;25.632;2024-02-21T00:24:27;33.10;;;18.80;;
23416;SDS011;11881;42.432;25.632;2024-02-21T00:26:53;31.83;;;17.97;;
23416;SDS011;11881;42.432;25.632;2024-02-21T00:29:19;32.03;;;17.47;;
23416;SDS011;11881;42.432;25.632;2024-02-21T00:31:44;28.80;;;17.63;;
23416;SDS011;11881;42.432;25.632;2024-02-21T00:34:10;33.10;;;17.67;;
23416;SDS011;11881;42.432;25.632;2024-02-21T00:36:37;36.20;;;22.83;;
23416;SDS011;11881;42.432;25.632;2024-02-21T00:39:03;39.73;;;23.40;;
23416;SDS011;11881;42.432;25.632;2024-02-21T00:41:29;38.97;;;24.23;;
23416;SDS011;11881;42.432;25.632;2024-02-21T00:43:54;39.50;;;24.57;;
23416;SDS011;11881;42.432;25.632;2024-02-21T00:46:20;39.93;;;24.50;;
23416;SDS011;11881;42.432;25.632;2024-02-21T00:48:45;38.40;;;23.97;;
23416;SDS011;11881;42.432;25.632;2024-02-21T00:51:11;37.57;;;23.03;;
23416;SDS011;11881;42.432;25.632;2024-02-21T00:53:36;36.67;;;22.90;;
23416;SDS011;11881;42.432;25.632;2024-02-21T00:56:04;37.00;;;22.03;;
23416;SDS011;11881;42.432;25.632;2024-02-21T00:58:30;41.00;;;24.70;;
23416;SDS011;11881;42.432;25.632;2024-02-21T01:00:56;40.53;;;23.27;;
23416;SDS011;11881;42.432;25.632;2024-02-21T01:03:21;39.93;;;24.00;;
23416;SDS011;11881;42.432;25.632;2024-02-21T01:05:47;39.77;;;24.40;;
23416;SDS011;11881;42.432;25.632;2024-02-21T01:08:12;41.60;;;25.07;;
23416;SDS011;11881;42.432;25.632;2024-02-21T01:10:38;37.30;;;24.20;;
23416;SDS011;11881;42.432;25.632;2024-02-21T01:13:03;39.87;;;25.97;;
23416;SDS011;11881;42.432;25.632;2024-02-21T01:15:29;37.43;;;24.20;;
23416;SDS011;11881;42.432;25.632;2024-02-21T01:17:54;40.73;;;25.20;;
23416;SDS011;11881;42.432;25.632;2024-02-21T01:20:20;40.47;;;24.70;;
23416;SDS011;11881;42.432;25.632;2024-02-21T01:22:46;40.33;;;24.37;;
23416;SDS011;11881;42.432;25.632;2024-02-21T01:25:12;40.23;;;23.97;;
23416;SDS011;11881;42.432;25.632;2024-02-21T01:27:37;43.77;;;25.87;;
23416;SDS011;11881;42.432;25.632;2024-02-21T01:30:03;39.57;;;25.07;;
23416;SDS011;11881;42.432;25.632;2024-02-21T01:32:29;40.97;;;25.00;;
23416;SDS011;11881;42.432;25.632;2024-02-21T01:34:54;39.47;;;25.93;;
23416;SDS011;11881;42.432;25.632;2024-02-21T01:37:20;44.30;;;27.30;;
23416;SDS011;11881;42.432;25.632;2024-02-21T01:39:45;43.53;;;27.50;;
23416;SDS011;11881;42.432;25.632;2024-02-21T01:42:11;43.17;;;26.30;;
23416;SDS011;11881;42.432;25.632;2024-02-21T01:44:36;40.13;;;24.73;;
23416;SDS011;11881;42.432;25.632;2024-02-21T01:47:03;38.10;;;24.23;;
23416;SDS011;11881;42.432;25.632;2024-02-21T01:49:28;39.10;;;24.30;;
23416;SDS011;11881;42.432;25.632;2024-02-21T01:51:55;41.43;;;25.43;;
23416;SDS011;11881;42.432;25.632;2024-02-21T01:54:21;41.47;;;24.93;;
23416;SDS011;11881;42.432;25.632;2024-02-21T01:56:46;39.03;;;22.63;;
23416;SDS011;11881;42.432;25.632;2024-02-21T01:59:13;34.83;;;21.80;;
23416;SDS011;11881;42.432;25.632;2024-02-21T02:01:40;37.33;;;22.50;;
23416;SDS011;11881;42.432;25.632;2024-02-21T02:04:06;37.23;;;24.50;;
23416;SDS011;11881;42.432;25.632;2024-02-21T02:06:32;40.83;;;23.80;;
23416;SDS011;11881;42.432;25.632;2024-02-21T02:08:58;39.17;;;22.57;;
23416;SDS011;11881;42.432;25.632;2024-02-21T02:11:23;36.80;;;22.00;;
23416;SDS011;11881;42.432;25.632;2024-02-21T02:13:49;32.47;;;19.50;;
23416;SDS011;11881;42.432;25.632;2024-02-21T02:16:14;33.57;;;18.63;;
23416;SDS011;11881;42.432;25.632;2024-02-21T02:18:40;33.50;;;20.67;;
23416;SDS011;11881;42.432;25.632;2024-02-21T02:21:08;34.17;;;20.53;;
23416;SDS011;11881;42.432;25.632;2024-02-21T02:23:39;35.80;;;21.17;;
23416;SDS011;11881;42.432;25.632;2024-02-21T02:26:06;34.83;;;20.60;;
23416;SDS011;11881;42.432;25.632;2024-02-21T02:28:32;34.20;;;21.67;;
23416;SDS011;11881;42.432;25.632;2024-02-21T02:30:58;45.47;;;23.57;;
23416;SDS011;11881;42.432;25.632;2024-02-21T02:33:23;39.33;;;22.03;;
23416;SDS011;11881;42.432;25.632;2024-02-21T02:35:49;35.90;;;23.10;;
23416;SDS011;11881;42.432;25.632;2024-02-21T02:38:14;36.57;;;23.20;;
23416;SDS011;11881;42.432;25.632;2024-02-21T02:40:40;40.30;;;23.77;;
23416;SDS011;11881;42.432;25.632;2024-02-21T02:43:06;37.73;;;23.07;;
23416;SDS011;11881;42.432;25.632;2024-02-21T02:45:32;42.13;;;25.13;;
23416;SDS011;11881;42.432;25.632;2024-02-21T02:47:58;38.40;;;24.83;;
23416;SDS011;11881;42.432;25.632;2024-02-21T02:50:24;38.53;;;25.33;;
23416;SDS011;11881;42.432;25.632;2024-02-21T02:52:51;35.73;;;24.67;;
23416;SDS011;11881;42.432;25.632;2024-02-21T02:55:17;42.13;;;25.73;;
23416;SDS011;11881;42.432;25.632;2024-02-21T02:57:43;45.37;;;26.17;;
23416;SDS011;11881;42.432;25.632;2024-02-21T03:00:10;40.13;;;25.90;;
23416;SDS011;11881;42.432;25.632;2024-02-21T03:02:37;43.03;;;25.27;;
23416;SDS011;11881;42.432;25.632;2024-02-21T03:05:13;41.00;;;25.13;;
23416;SDS011;11881;42.432;25.632;2024-02-21T03:07:43;43.60;;;27.87;;
23416;SDS011;11881;42.432;25.632;2024-02-21T03:10:10;42.67;;;26.53;;
23416;SDS011;11881;42.432;25.632;2024-02-21T03:12:36;41.87;;;26.40;;
23416;SDS011;11881;42.432;25.632;2024-02-21T03:15:02;44.00;;;25.10;;
23416;SDS011;11881;42.432;25.632;2024-02-21T03:17:28;38.87;;;24.97;;
23416;SDS011;11881;42.432;25.632;2024-02-21T03:19:54;41.20;;;25.43;;
23416;SDS011;11881;42.432;25.632;2024-02-21T03:22:20;41.63;;;24.97;;
23416;SDS011;11881;42.432;25.632;2024-02-21T03:24:46;40.37;;;25.03;;
23416;SDS011;11881;42.432;25.632;2024-02-21T03:27:12;40.00;;;23.90;;
23416;SDS011;11881;42.432;25.632;2024-02-21T03:29:37;42.47;;;24.57;;
23416;SDS011;11881;42.432;25.632;2024-02-21T03:32:03;40.03;;;23.30;;
23416;SDS011;11881;42.432;25.632;2024-02-21T03:34:29;35.03;;;22.77;;
23416;SDS011;11881;42.432;25.632;2024-02-21T03:36:54;38.57;;;23.40;;
23416;SDS011;11881;42.432;25.632;2024-02-21T03:39:19;38.00;;;23.33;;
23416;SDS011;11881;42.432;25.632;2024-02-21T03:41:46;39.57;;;23.17;;
23416;SDS011;11881;42.432;25.632;2024-02-21T03:44:12;39.03;;;22.80;;
23416;SDS011;11881;42.432;25.632;2024-02-21T03:46:37;34.83;;;22.47;;
23416;SDS011;11881;42.432;25.632;2024-02-21T03:49:03;36.43;;;22.73;;
23416;SDS011;11881;42.432;25.632;2024-02-21T03:51:28;40.47;;;23.63;;
23416;SDS011;11881;42.432;25.632;2024-02-21T03:53:54;37.07;;;22.40;;
23416;SDS011;11881;42.432;25.632;2024-02-21T03:56:19;35.93;;;22.23;;
23416;SDS011;11881;42.432;25.632;2024-02-21T03:58:45;39.50;;;21.90;;
23416;SDS011;11881;42.432;25.632;2024-02-21T04:01:10;36.20;;;22.10;;
23416;SDS011;11881;42.432;25.632;2024-02-21T04:03:36;39.97;;;22.97;;
23416;SDS011;11881;42.432;25.632;2024-02-21T04:06:01;40.23;;;21.33;;
23416;SDS011;11881;42.432;25.632;2024-02-21T04:08:27;38.23;;;20.77;;
23416;SDS011;11881;42.432;25.632;2024-02-21T04:10:52;32.33;;;19.00;;
23416;SDS011;11881;42.432;25.632;2024-02-21T04:13:18;29.90;;;17.93;;
23416;SDS011;11881;42.432;25.632;2024-02-21T04:15:43;33.53;;;18.13;;
23416;SDS011;11881;42.432;25.632;2024-02-21T04:18:09;32.53;;;19.27;;
23416;SDS011;11881;42.432;25.632;2024-02-21T04:20:34;30.60;;;18.53;;
23416;SDS011;11881;42.432;25.632;2024-02-21T04:23:00;34.97;;;20.53;;
23416;SDS011;11881;42.432;25.632;2024-02-21T04:25:25;34.47;;;20.93;;
23416;SDS011;11881;42.432;25.632;2024-02-21T04:27:51;31.77;;;19.40;;
23416;SDS011;11881;42.432;25.632;2024-02-21T04:30:17;39.80;;;21.07;;
23416;SDS011;11881;42.432;25.632;2024-02-21T04:32:43;35.47;;;20.50;;
23416;SDS011;11881;42.432;25.632;2024-02-21T04:35:08;40.67;;;22.37;;
23416;SDS011;11881;42.432;25.632;2024-02-21T04:37:34;36.63;;;21.93;;
23416;SDS011;11881;42.432;25.632;2024-02-21T04:39:59;36.13;;;21.63;;
23416;SDS011;11881;42.432;25.632;2024-02-21T04:42:25;42.53;;;22.23;;
23416;SDS011;11881;42.432;25.632;2024-02-21T04:44:51;35.80;;;22.40;;
23416;SDS011;11881;42.432;25.632;2024-02-21T04:47:16;36.07;;;22.20;;
23416;SDS011;11881;42.432;25.632;2024-02-21T04:49:42;38.43;;;22.70;;
23416;SDS011;11881;42.432;25.632;2024-02-21T04:52:07;37.43;;;22.37;;
23416;SDS011;11881;42.432;25.632;2024-02-21T04:54:33;47.43;;;23.83;;
23416;SDS011;11881;42.432;25.632;2024-02-21T04:57:00;34.93;;;21.93;;
23416;SDS011;11881;42.432;25.632;2024-02-21T04:59:26;40.17;;;23.60;;
23416;SDS011;11881;42.432;25.632;2024-02-21T05:01:52;40.53;;;23.83;;
23416;SDS011;11881;42.432;25.632;2024-02-21T05:04:17;43.73;;;24.77;;
23416;SDS011;11881;42.432;25.632;2024-02-21T05:06:43;40.03;;;24.93;;
23416;SDS011;11881;42.432;25.632;2024-02-21T05:09:09;42.90;;;25.90;;
23416;SDS011;11881;42.432;25.632;2024-02-21T05:11:37;45.67;;;27.27;;
23416;SDS011;11881;42.432;25.632;2024-02-21T05:14:03;41.60;;;25.23;;
23416;SDS011;11881;42.432;25.632;2024-02-21T05:16:29;47.33;;;28.33;;
23416;SDS011;11881;42.432;25.632;2024-02-21T05:18:56;51.83;;;29.70;;
23416;SDS011;11881;42.432;25.632;2024-02-21T05:21:25;52.43;;;29.70;;
23416;SDS011;11881;42.432;25.632;2024-02-21T05:23:50;48.73;;;28.17;;
23416;SDS011;11881;42.432;25.632;2024-02-21T05:26:20;49.13;;;28.20;;
23416;SDS011;11881;42.432;25.632;2024-02-21T05:28:49;43.90;;;26.63;;
23416;SDS011;11881;42.432;25.632;2024-02-21T05:31:15;43.60;;;26.20;;
23416;SDS011;11881;42.432;25.632;2024-02-21T05:33:42;49.40;;;26.77;;
23416;SDS011;11881;42.432;25.632;2024-02-21T05:36:08;51.00;;;30.70;;
23416;SDS011;11881;42.432;25.632;2024-02-21T05:38:33;49.23;;;28.03;;
23416;SDS011;11881;42.432;25.632;2024-02-21T05:41:00;49.03;;;27.87;;
23416;SDS011;11881;42.432;25.632;2024-02-21T05:43:26;48.00;;;28.13;;
23416;SDS011;11881;42.432;25.632;2024-02-21T05:45:51;46.63;;;27.37;;
23416;SDS011;11881;42.432;25.632;2024-02-21T05:48:17;46.87;;;28.10;;
23416;SDS011;11881;42.432;25.632;2024-02-21T05:50:42;46.20;;;26.10;;
23416;SDS011;11881;42.432;25.632;2024-02-21T05:53:08;47.10;;;25.30;;
23416;SDS011;11881;42.432;25.632;2024-02-21T05:55:35;45.37;;;24.67;;
23416;SDS011;11881;42.432;25.632;2024-02-21T05:58:00;40.70;;;22.83;;
23416;SDS011;11881;42.432;25.632;2024-02-21T06:00:27;42.63;;;22.27;;
23416;SDS011;11881;42.432;25.632;2024-02-21T06:02:53;42.67;;;22.13;;
23416;SDS011;11881;42.432;25.632;2024-02-21T06:05:18;41.33;;;22.53;;
23416;SDS011;11881;42.432;25.632;2024-02-21T06:07:44;38.13;;;22.50;;
23416;SDS011;11881;42.432;25.632;2024-02-21T06:10:09;38.67;;;22.17;;
23416;SDS011;11881;42.432;25.632;2024-02-21T06:12:35;38.53;;;21.73;;
23416;SDS011;11881;42.432;25.632;2024-02-21T06:15:00;41.60;;;21.73;;
23416;SDS011;11881;42.432;25.632;2024-02-21T06:17:26;36.10;;;21.77;;
23416;SDS011;11881;42.432;25.632;2024-02-21T06:19:51;42.80;;;23.60;;
23416;SDS011;11881;42.432;25.632;2024-02-21T06:22:17;44.77;;;23.53;;
23416;SDS011;11881;42.432;25.632;2024-02-21T06:24:42;37.80;;;22.00;;
23416;SDS011;11881;42.432;25.632;2024-02-21T06:27:08;35.87;;;22.10;;
23416;SDS011;11881;42.432;25.632;2024-02-21T06:29:35;36.37;;;21.17;;
23416;SDS011;11881;42.432;25.632;2024-02-21T06:32:01;34.63;;;20.67;;
23416;SDS011;11881;42.432;25.632;2024-02-21T06:34:27;40.83;;;21.67;;
23416;SDS011;11881;42.432;25.632;2024-02-21T06:36:52;37.67;;;21.03;;
23416;SDS011;11881;42.432;25.632;2024-02-21T06:39:18;37.30;;;20.93;;
23416;SDS011;11881;42.432;25.632;2024-02-21T06:41:43;38.93;;;21.37;;
23416;SDS011;11881;42.432;25.632;2024-02-21T06:44:09;41.77;;;21.63;;
23416;SDS011;11881;42.432;25.632;2024-02-21T06:46:35;36.17;;;21.83;;
23416;SDS011;11881;42.432;25.632;2024-02-21T06:49:00;38.00;;;22.23;;
23416;SDS011;11881;42.432;25.632;2024-02-21T06:51:28;38.70;;;22.67;;
23416;SDS011;11881;42.432;25.632;2024-02-21T06:53:54;43.33;;;22.27;;
23416;SDS011;11881;42.432;25.632;2024-02-21T06:56:19;36.67;;;22.13;;
23416;SDS011;11881;42.432;25.632;2024-02-21T06:58:45;39.97;;;24.13;;
23416;SDS011;11881;42.432;25.632;2024-02-21T07:01:11;42.17;;;24.80;;
23416;SDS011;11881;42.432;25.632;2024-02-21T07:03:36;37.30;;;22.73;;
23416;SDS011;11881;42.432;25.632;2024-02-21T07:06:02;39.00;;;23.00;;
23416;SDS011;11881;42.432;25.632;2024-02-21T07:08:29;35.00;;;21.70;;
23416;SDS011;11881;42.432;25.632;2024-02-21T07:10:54;35.57;;;21.60;;
23416;SDS011;11881;42.432;25.632;2024-02-21T07:13:20;33.13;;;20.13;;
23416;SDS011;11881;42.432;25.632;2024-02-21T07:15:48;32.80;;;20.27;;
23416;SDS011;11881;42.432;25.632;2024-02-21T07:18:13;33.83;;;19.50;;
23416;SDS011;11881;42.432;25.632;2024-02-21T07:20:39;34.83;;;20.63;;
23416;SDS011;11881;42.432;25.632;2024-02-21T07:23:06;33.47;;;20.33;;
23416;SDS011;11881;42.432;25.632;2024-02-21T07:25:32;34.57;;;20.53;;
23416;SDS011;11881;42.432;25.632;2024-02-21T07:27:59;41.90;;;23.27;;
23416;SDS011;11881;42.432;25.632;2024-02-21T07:30:25;42.37;;;23.03;;
23416;SDS011;11881;42.432;25.632;2024-02-21T07:32:50;40.87;;;23.13;;
23416;SDS011;11881;42.432;25.632;2024-02-21T07:35:19;50.83;;;25.80;;
23416;SDS011;11881;42.432;25.632;2024-02-21T07:37:45;70.93;;;35.43;;
23416;SDS011;11881;42.432;25.632;2024-02-21T07:40:14;83.93;;;36.07;;
23416;SDS011;11881;42.432;25.632;2024-02-21T07:42:41;77.80;;;37.20;;
23416;SDS011;11881;42.432;25.632;2024-02-21T07:45:09;84.10;;;34.13;;
23416;SDS011;11881;42.432;25.632;2024-02-21T07:47:36;62.70;;;30.20;;
23416;SDS011;11881;42.432;25.632;2024-02-21T07:50:02;66.27;;;32.93;;
23416;SDS011;11881;42.432;25.632;2024-02-21T07:52:28;61.77;;;32.50;;
23416;SDS011;11881;42.432;25.632;2024-02-21T07:54:54;63.77;;;31.63;;
23416;SDS011;11881;42.432;25.632;2024-02-21T07:57:20;65.73;;;31.57;;
23416;SDS011;11881;42.432;25.632;2024-02-21T07:59:45;53.87;;;28.93;;
23416;SDS011;11881;42.432;25.632;2024-02-21T08:02:13;54.57;;;28.53;;
23416;SDS011;11881;42.432;25.632;2024-02-21T08:04:39;58.03;;;28.50;;
23416;SDS011;11881;42.432;25.632;2024-02-21T08:07:04;57.10;;;28.70;;
23416;SDS011;11881;42.432;25.632;2024-02-21T08:09:30;49.87;;;25.50;;
23416;SDS011;11881;42.432;25.632;2024-02-21T08:11:55;50.20;;;26.87;;
23416;SDS011;11881;42.432;25.632;2024-02-21T08:14:21;44.60;;;26.33;;
23416;SDS011;11881;42.432;25.632;2024-02-21T08:16:47;43.40;;;24.23;;
23416;SDS011;11881;42.432;25.632;2024-02-21T08:19:13;41.73;;;22.60;;
23416;SDS011;11881;42.432;25.632;2024-02-21T08:21:39;39.33;;;22.40;;
23416;SDS011;11881;42.432;25.632;2024-02-21T08:24:04;41.50;;;22.60;;
23416;SDS011;11881;42.432;25.632;2024-02-21T08:26:30;36.93;;;22.30;;
23416;SDS011;11881;42.432;25.632;2024-02-21T08:28:59;38.47;;;22.77;;
23416;SDS011;11881;42.432;25.632;2024-02-21T08:31:25;37.40;;;21.77;;
23416;SDS011;11881;42.432;25.632;2024-02-21T08:33:57;37.80;;;22.07;;
23416;SDS011;11881;42.432;25.632;2024-02-21T08:36:28;40.80;;;22.57;;
23416;SDS011;11881;42.432;25.632;2024-02-21T08:38:57;36.37;;;20.83;;
23416;SDS011;11881;42.432;25.632;2024-02-21T08:41:23;36.70;;;21.50;;
23416;SDS011;11881;42.432;25.632;2024-02-21T08:43:52;41.97;;;21.63;;
23416;SDS011;11881;42.432;25.632;2024-02-21T08:46:22;41.90;;;21.33;;
23416;SDS011;11881;42.432;25.632;2024-02-21T08:48:50;37.13;;;21.50;;
23416;SDS011;11881;42.432;25.632;2024-02-21T08:51:16;33.67;;;19.90;;
23416;SDS011;11881;42.432;25.632;2024-02-21T08:53:43;33.23;;;19.93;;
23416;SDS011;11881;42.432;25.632;2024-02-21T08:56:09;34.80;;;20.60;;
23416;SDS011;11881;42.432;25.632;2024-02-21T08:58:35;32.83;;;19.90;;
23416;SDS011;11881;42.432;25.632;2024-02-21T09:01:05;39.77;;;20.97;;
23416;SDS011;11881;42.432;25.632;2024-02-21T09:03:34;40.70;;;21.90;;
23416;SDS011;11881;42.432;25.632;2024-02-21T09:06:00;40.63;;;22.17;;
23416;SDS011;11881;42.432;25.632;2024-02-21T09:08:25;33.60;;;19.53;;
23416;SDS011;11881;42.432;25.632;2024-02-21T09:10:51;30.50;;;18.03;;
23416;SDS011;11881;42.432;25.632;2024-02-21T09:13:18;27.63;;;17.07;;
23416;SDS011;11881;42.432;25.632;2024-02-21T09:15:43;27.27;;;17.70;;
23416;SDS011;11881;42.432;25.632;2024-02-21T09:18:09;28.40;;;18.20;;
23416;SDS011;11881;42.432;25.632;2024-02-21T09:20:35;29.17;;;17.27;;
23416;SDS011;11881;42.432;25.632;2024-02-21T09:23:00;31.37;;;19.23;;
23416;SDS011;11881;42.432;25.632;2024-02-21T09:25:26;32.27;;;19.77;;
23416;SDS011;11881;42.432;25.632;2024-02-21T09:27:53;26.87;;;18.10;;
23416;SDS011;11881;42.432;25.632;2024-02-21T09:30:19;32.00;;;18.57;;
23416;SDS011;11881;42.432;25.632;2024-02-21T09:32:45;32.73;;;18.07;;
23416;SDS011;11881;42.432;25.632;2024-02-21T09:35:11;26.43;;;16.77;;
23416;SDS011;11881;42.432;25.632;2024-02-21T09:37:38;27.07;;;17.03;;
23416;SDS011;11881;42.432;25.632;2024-02-21T09:40:06;27.77;;;16.57;;
23416;SDS011;11881;42.432;25.632;2024-02-21T09:42:39;25.33;;;17.17;;
23416;SDS011;11881;42.432;25.632;2024-02-21T09:45:15;25.70;;;16.37;;
23416;SDS011;11881;42.432;25.632;2024-02-21T09:50:41;27.80;;;17.07;;
23416;SDS011;11881;42.432;25.632;2024-02-21T09:53:09;31.77;;;17.13;;
23416;SDS011;11881;42.432;25.632;2024-02-21T09:55:37;29.37;;;18.23;;
23416;SDS011;11881;42.432;25.632;2024-02-21T09:58:06;24.23;;;16.13;;
23416;SDS011;11881;42.432;25.632;2024-02-21T10:00:33;25.77;;;16.33;;
23416;SDS011;11881;42.432;25.632;2024-02-21T10:02:58;25.63;;;15.30;;
23416;SDS011;11881;42.432;25.632;2024-02-21T10:05:24;23.17;;;16.03;;
23416;SDS011;11881;42.432;25.632;2024-02-21T10:07:50;27.00;;;15.73;;
23416;SDS011;11881;42.432;25.632;2024-02-21T10:10:16;26.80;;;15.47;;
23416;SDS011;11881;42.432;25.632;2024-02-21T10:12:49;25.83;;;16.37;;
23416;SDS011;11881;42.432;25.632;2024-02-21T10:15:19;24.67;;;16.03;;
23416;SDS011;11881;42.432;25.632;2024-02-21T10:17:46;23.30;;;14.87;;
23416;SDS011;11881;42.432;25.632;2024-02-21T10:20:12;22.80;;;15.93;;
23416;SDS011;11881;42.432;25.632;2024-02-21T10:22:39;26.97;;;16.10;;
23416;SDS011;11881;42.432;25.632;2024-02-21T10:25:11;30.13;;;16.03;;
23416;SDS011;11881;42.432;25.632;2024-02-21T10:27:41;25.47;;;15.77;;
23416;SDS011;11881;42.432;25.632;2024-02-21T10:30:07;29.50;;;16.53;;
23416;SDS011;11881;42.432;25.632;2024-02-21T10:32:50;26.20;;;15.43;;
23416;SDS011;11881;42.432;25.632;2024-02-21T10:35:29;24.27;;;15.50;;
23416;SDS011;11881;42.432;25.632;2024-02-21T10:37:56;23.60;;;15.83;;
23416;SDS011;11881;42.432;25.632;2024-02-21T10:40:23;25.80;;;15.67;;
23416;SDS011;11881;42.432;25.632;2024-02-21T10:42:56;27.73;;;16.23;;
23416;SDS011;11881;42.432;25.632;2024-02-21T10:45:35;28.43;;;17.13;;
23416;SDS011;11881;42.432;25.632;2024-02-21T10:53:39;24.30;;;16.23;;
23416;SDS011;11881;42.432;25.632;2024-02-21T10:56:30;28.17;;;16.17;;
23416;SDS011;11881;42.432;25.632;2024-02-21T10:59:00;31.70;;;16.10;;
23416;SDS011;11881;42.432;25.632;2024-02-21T11:01:30;31.10;;;16.53;;
23416;SDS011;11881;42.432;25.632;2024-02-21T11:04:00;27.03;;;15.87;;
23416;SDS011;11881;42.432;25.632;2024-02-21T11:06:28;25.70;;;16.60;;
23416;SDS011;11881;42.432;25.632;2024-02-21T11:09:03;29.83;;;16.77;;
23416;SDS011;11881;42.432;25.632;2024-02-21T11:11:39;27.10;;;16.50;;
23416;SDS011;11881;42.432;25.632;2024-02-21T11:14:10;26.57;;;16.33;;
23416;SDS011;11881;42.432;25.632;2024-02-21T11:16:37;24.77;;;15.83;;
23416;SDS011;11881;42.432;25.632;2024-02-21T11:19:07;19.50;;;12.73;;
23416;SDS011;11881;42.432;25.632;2024-02-21T11:21:35;19.93;;;12.67;;
23416;SDS011;11881;42.432;25.632;2024-02-21T11:24:05;21.20;;;12.97;;
23416;SDS011;11881;42.432;25.632;2024-02-21T11:26:31;22.43;;;12.40;;
23416;SDS011;11881;42.432;25.632;2024-02-21T11:29:00;20.40;;;11.77;;
23416;SDS011;11881;42.432;25.632;2024-02-21T11:31:38;18.37;;;11.47;;
23416;SDS011;11881;42.432;25.632;2024-02-21T11:34:10;19.10;;;11.27;;
23416;SDS011;11881;42.432;25.632;2024-02-21T11:36:48;18.97;;;11.77;;
23416;SDS011;11881;42.432;25.632;2024-02-21T11:39:19;17.53;;;11.10;;
23416;SDS011;11881;42.432;25.632;2024-02-21T11:41:47;21.17;;;12.00;;
23416;SDS011;11881;42.432;25.632;2024-02-21T11:44:23;16.83;;;11.03;;
23416;SDS011;11881;42.432;25.632;2024-02-21T11:46:49;20.30;;;10.93;;
23416;SDS011;11881;42.432;25.632;2024-02-21T11:49:14;17.37;;;10.63;;
23416;SDS011;11881;42.432;25.632;2024-02-21T11:51:40;16.03;;;9.60;;
23416;SDS011;11881;42.432;25.632;2024-02-21T11:54:05;9.40;;;6.50;;
23416;SDS011;11881;42.432;25.632;2024-02-21T11:56:31;10.40;;;6.20;;
23416;SDS011;11881;42.432;25.632;2024-02-21T11:58:58;12.20;;;6.70;;
23416;SDS011;11881;42.432;25.632;2024-02-21T12:01:24;9.20;;;6.70;;
23416;SDS011;11881;42.432;25.632;2024-02-21T12:03:49;11.43;;;7.13;;
23416;SDS011;11881;42.432;25.632;2024-02-21T12:06:16;11.90;;;8.47;;
23416;SDS011;11881;42.432;25.632;2024-02-21T12:08:47;16.00;;;9.40;;
23416;SDS011;11881;42.432;25.632;2024-02-21T12:11:19;16.80;;;10.63;;
23416;SDS011;11881;42.432;25.632;2024-02-21T12:14:01;15.37;;;9.37;;
23416;SDS011;11881;42.432;25.632;2024-02-21T12:16:28;12.43;;;7.97;;
23416;SDS011;11881;42.432;25.632;2024-02-21T12:18:58;10.13;;;6.40;;
23416;SDS011;11881;42.432;25.632;2024-02-21T12:21:25;8.83;;;6.00;;
23416;SDS011;11881;42.432;25.632;2024-02-21T12:23:54;10.30;;;6.70;;
23416;SDS011;11881;42.432;25.632;2024-02-21T12:26:20;8.13;;;6.57;;
23416;SDS011;11881;42.432;25.632;2024-02-21T12:28:45;10.80;;;6.90;;
23416;SDS011;11881;42.432;25.632;2024-02-21T12:31:11;13.93;;;8.73;;
23416;SDS011;11881;42.432;25.632;2024-02-21T12:33:37;14.53;;;10.13;;
23416;SDS011;11881;42.432;25.632;2024-02-21T12:36:02;15.23;;;10.40;;
23416;SDS011;11881;42.432;25.632;2024-02-21T12:38:29;16.97;;;11.13;;
23416;SDS011;11881;42.432;25.632;2024-02-21T12:40:54;15.83;;;10.57;;
23416;SDS011;11881;42.432;25.632;2024-02-21T12:43:20;14.40;;;10.00;;
23416;SDS011;11881;42.432;25.632;2024-02-21T12:45:47;14.13;;;9.70;;
23416;SDS011;11881;42.432;25.632;2024-02-21T12:48:13;13.97;;;9.30;;
23416;SDS011;11881;42.432;25.632;2024-02-21T12:50:39;13.87;;;9.77;;
23416;SDS011;11881;42.432;25.632;2024-02-21T12:53:06;15.13;;;10.10;;
23416;SDS011;11881;42.432;25.632;2024-02-21T12:55:32;15.93;;;9.67;;
23416;SDS011;11881;42.432;25.632;2024-02-21T12:58:02;12.80;;;8.70;;
23416;SDS011;11881;42.432;25.632;2024-02-21T13:00:30;16.70;;;9.37;;
23416;SDS011;11881;42.432;25.632;2024-02-21T13:02:56;14.83;;;8.93;;
23416;SDS011;11881;42.432;25.632;2024-02-21T13:05:22;12.63;;;8.90;;
23416;SDS011;11881;42.432;25.632;2024-02-21T13:07:48;14.33;;;9.60;;
23416;SDS011;11881;42.432;25.632;2024-02-21T13:10:13;15.37;;;9.80;;
23416;SDS011;11881;42.432;25.632;2024-02-21T13:12:39;15.97;;;10.87;;
23416;SDS011;11881;42.432;25.632;2024-02-21T13:15:05;18.43;;;10.67;;
23416;SDS011;11881;42.432;25.632;2024-02-21T13:17:31;13.50;;;9.67;;
23416;SDS011;11881;42.432;25.632;2024-02-21T13:19:57;13.53;;;9.67;;
23416;SDS011;11881;42.432;25.632;2024-02-21T13:22:22;14.27;;;9.87;;
23416;SDS011;11881;42.432;25.632;2024-02-21T13:24:51;13.80;;;9.70;;
23416;SDS011;11881;42.432;25.632;2024-02-21T13:27:16;16.90;;;10.17;;
23416;SDS011;11881;42.432;25.632;2024-02-21T13:29:42;17.60;;;10.63;;
23416;SDS011;11881;42.432;25.632;2024-02-21T13:32:07;15.03;;;9.83;;
23416;SDS011;11881;42.432;25.632;2024-02-21T13:34:33;14.63;;;9.57;;
23416;SDS011;11881;42.432;25.632;2024-02-21T13:36:59;14.43;;;9.67;;
23416;SDS011;11881;42.432;25.632;2024-02-21T13:39:24;15.47;;;9.70;;
23416;SDS011;11881;42.432;25.632;2024-02-21T13:41:50;13.37;;;9.27;;
23416;SDS011;11881;42.432;25.632;2024-02-21T13:44:16;13.57;;;9.33;;
23416;SDS011;11881;42.432;25.632;2024-02-21T13:46:41;17.27;;;8.73;;
23416;SDS011;11881;42.432;25.632;2024-02-21T13:49:07;13.50;;;8.87;;
23416;SDS011;11881;42.432;25.632;2024-02-21T13:51:33;13.67;;;9.47;;
23416;SDS011;11881;42.432;25.632;2024-02-21T13:54:03;13.67;;;9.47;;
23416;SDS011;11881;42.432;25.632;2024-02-21T13:56:29;14.77;;;9.43;;
23416;SDS011;11881;42.432;25.632;2024-02-21T13:58:55;12.83;;;9.63;;
23416;SDS011;11881;42.432;25.632;2024-02-21T14:01:21;13.33;;;9.07;;
23416;SDS011;11881;42.432;25.632;2024-02-21T14:03:46;12.57;;;9.20;;
23416;SDS011;11881;42.432;25.632;2024-02-21T14:06:12;13.07;;;9.13;;
23416;SDS011;11881;42.432;25.632;2024-02-21T14:08:38;15.33;;;10.17;;
23416;SDS011;11881;42.432;25.632;2024-02-21T14:11:05;15.73;;;9.63;;
23416;SDS011;11881;42.432;25.632;2024-02-21T14:13:31;17.50;;;10.07;;
23416;SDS011;11881;42.432;25.632;2024-02-21T14:15:57;17.40;;;10.07;;